Airfield :
LOGIN :

Register | Disclaimer

   EN    FR    IT 

 










Legend :    VFR   Marginal VFR   IFR   Intensive IFR   Very Intensive IFR
Visi :
Ceiling :
>= 8 km
>= 3000ft
5 to 8 km
1000 to 3000 ft
1500m to 5 km
500 to 1000 ft
800 to 1500m
200 to 500 ft
< 800m
< 200 ft
Symbols :   Thunderstorms  Fog  Heavy snow  Heavy precipitations  Wind > 20 kt
SIGMETs :     Misc.  Thunderstorms  Icing  Turbulence  Mountain Waves  Volcanic Ashes






- Airport Elevation : 412 ft
- IATA code : ORE


LFOJ - Orleans

CURRENT METAR :
  • 281930Z AUTO 22019KT 9999 BKN021 BKN027 BKN250 12/09 Q1014 TEMPO 22020G35KT 4900 -SHRA BKN020TCU BKN070

EXPIRED METARs :
  • 281900Z AUTO 22018KT 9999 FEW022 SCT100 BKN240 12/09 Q1014 TEMPO 22020G35KT 4900 -SHRA BKN020TCU BKN070
  • 281830Z AUTO 21019KT 9999 FEW026 SCT100 12/09 Q1013 TEMPO 22020G35KT 4900 -SHRA BKN020TCU BKN070
  • 281800Z AUTO 21018KT 9999 SCT028 SCT100 BKN160 12/09 Q1013 TEMPO 22020G35KT 4900 -SHRA BKN020TCU BKN070
  • 281730Z AUTO 21016KT 9999 FEW031 OVC160 13/10 Q1013 TEMPO 22020G35KT 4900 -SHRA BKN020TCU BKN070
  • 281700Z AUTO 21017KT CAVOK 13/09 Q1012 TEMPO 22020G35KT 4900 -SHRA BKN020TCU BKN070

TAF TAF LFOJ
Valid from the 28 at 15:00 until the 29 at 15:00 UTC


281400Z 2815/2915 22015G25KT 9999 SCT025 BKN070 TX15/2913Z TN10/2903Z
TEMPO 2815/2822 22020G35KT 4900 -SHRA BKN020TCU BKN070
PROB40
TEMPO 2815/2818 2500 SHRA BKN020CB
BECMG 2902/2904 24013KT BKN006
BECMG 2908/2910 BKN014



MET'MAP, your aeronautical weather chart ! - Copyright ORBIFLY December 2007 - Disclaimer

ORBIFLY MET'MAP TEAM :

Programming & Development : Alexandra Zaïnal
Concept & original design : Baudouin d'Aumeries
Assistance for programming : Marc-Olivier Méhu
Technical & hardware support : Manuel Goepfert

Contact : metmap@orbifly.com




SOURCES & CREDITS :

   NOAA